Time;durP1;ratioP1;P1;durP2;ratioP2;P2;SDS_P1;SDS_P2;PMS_P1;PMS_P2;Temp;Humidity;BMP_temperature;BMP_pressure;BME280_temperature;BME280_humidity;BME280_pressure;Samples;Min_cycle;Max_cycle;Signal;HPM_P1;HPM_P2
2021/11/27 00:01:00;;;;;;;6.82;2.53;;;6.10;99.90;;;;;;4973666;28;20180;-81
2021/11/27 00:03:26;;;;;;;3.50;2.70;;;6.10;99.90;;;;;;4974120;28;20169;-77
2021/11/27 00:05:54;;;;;;;3.63;2.45;;;6.10;99.90;;;;;;4974181;28;20190;-86
2021/11/27 00:08:20;;;;;;;3.25;1.98;;;6.20;99.90;;;;;;4974177;28;20261;-87
2021/11/27 00:10:50;;;;;;;5.32;2.42;;;6.10;99.90;;;;;;4974443;28;20205;-77
2021/11/27 00:13:17;;;;;;;2.45;2.15;;;6.10;99.90;;;;;;4974441;28;20536;-77
2021/11/27 00:15:44;;;;;;;3.00;2.00;;;6.20;99.90;;;;;;4974249;28;20186;-81
2021/11/27 00:18:11;;;;;;;1.60;1.50;;;6.10;99.90;;;;;;4974301;28;20253;-89
2021/11/27 00:20:43;;;;;;;2.42;1.70;;;6.30;99.90;;;;;;4957523;28;20174;-88
2021/11/27 00:23:09;;;;;;;2.33;1.60;;;6.20;99.90;;;;;;4975069;28;20193;-87
2021/11/27 00:25:35;;;;;;;2.47;1.73;;;6.10;99.90;;;;;;4977428;28;20186;-88
2021/11/27 00:28:01;;;;;;;1.55;1.45;;;5.90;99.90;;;;;;4982690;28;20162;-88
2021/11/27 00:30:29;;;;;;;1.30;1.17;;;5.90;99.90;;;;;;4998762;28;20217;-80
2021/11/27 00:32:54;;;;;;;1.00;0.98;;;6.10;99.90;;;;;;4968349;28;20166;-87
2021/11/27 00:35:20;;;;;;;1.30;1.13;;;6.30;99.90;;;;;;4979086;28;20265;-87
2021/11/27 00:37:52;;;;;;;2.05;1.20;;;6.20;99.90;;;;;;4979199;28;20170;-84
2021/11/27 00:40:18;;;;;;;1.75;1.30;;;5.90;99.90;;;;;;4961404;28;20265;-88
2021/11/27 00:42:44;;;;;;;2.38;1.50;;;5.80;99.90;;;;;;4979195;28;20257;-88
2021/11/27 00:45:12;;;;;;;1.38;1.25;;;6.10;99.90;;;;;;4978978;28;20230;-88
2021/11/27 00:47:42;;;;;;;1.95;1.15;;;6.10;99.90;;;;;;4978227;28;20170;-89
2021/11/27 00:50:09;;;;;;;1.45;1.35;;;6.00;99.90;;;;;;4977834;28;20295;-85
2021/11/27 00:52:35;;;;;;;1.27;1.17;;;5.80;99.90;;;;;;4960680;28;20162;-87
2021/11/27 00:55:02;;;;;;;1.30;1.20;;;6.00;99.90;;;;;;4978014;28;20185;-88
2021/11/27 00:57:28;;;;;;;3.30;1.40;;;6.00;99.90;;;;;;4977873;28;20166;-84
2021/11/27 00:59:53;;;;;;;2.00;1.48;;;6.10;99.90;;;;;;4978100;28;20172;-87
2021/11/27 01:02:19;;;;;;;8.82;1.67;;;6.10;99.90;;;;;;4978416;28;20536;-86
2021/11/27 01:04:45;;;;;;;3.67;2.17;;;6.10;99.90;;;;;;4978025;28;20181;-88
2021/11/27 01:07:10;;;;;;;2.05;1.70;;;6.30;99.90;;;;;;4976970;28;20200;-88
2021/11/27 01:09:36;;;;;;;2.10;1.90;;;6.30;99.90;;;;;;4977650;28;20162;-88
2021/11/27 01:12:03;;;;;;;1.85;1.40;;;6.40;99.90;;;;;;4977906;28;20185;-88
2021/11/27 01:14:29;;;;;;;1.65;1.52;;;6.20;99.90;;;;;;4978176;28;20201;-87
2021/11/27 01:17:00;;;;;;;2.80;1.95;;;6.10;99.90;;;;;;4978057;28;20193;-88
2021/11/27 01:19:27;;;;;;;2.28;2.05;;;6.00;99.90;;;;;;4978042;28;20169;-87
2021/11/27 01:22:00;;;;;;;2.97;2.13;;;5.80;99.90;;;;;;4977712;28;20173;-87
2021/11/27 01:24:26;;;;;;;3.30;1.95;;;5.80;99.90;;;;;;4979138;28;20186;-87
2021/11/27 01:26:54;;;;;;;1.90;1.65;;;5.90;99.90;;;;;;4980444;28;20193;-86
2021/11/27 01:29:21;;;;;;;2.20;2.00;;;5.80;99.90;;;;;;4978346;28;20170;-87
2021/11/27 01:31:47;;;;;;;2.00;1.90;;;5.70;99.90;;;;;;4979488;28;20276;-86
2021/11/27 01:34:13;;;;;;;4.45;1.80;;;5.60;99.90;;;;;;4978339;28;20217;-81
2021/11/27 01:36:39;;;;;;;5.07;2.63;;;5.70;99.90;;;;;;4976283;28;20185;-87
2021/11/27 01:39:07;;;;;;;10.88;2.97;;;5.80;99.90;;;;;;4977994;28;20245;-85
2021/11/27 01:41:35;;;;;;;3.83;2.38;;;5.70;99.90;;;;;;4980279;28;20177;-86
2021/11/27 01:44:01;;;;;;;3.58;2.15;;;5.60;99.90;;;;;;4977196;28;20173;-87
2021/11/27 01:46:27;;;;;;;3.13;2.60;;;5.60;99.90;;;;;;4979924;28;20182;-87
2021/11/27 01:48:53;;;;;;;6.55;3.15;;;5.60;99.90;;;;;;4977245;28;20531;-77
2021/11/27 01:51:21;;;;;;;2.70;2.40;;;5.40;99.90;;;;;;4977201;28;20221;-84
2021/11/27 01:53:54;;;;;;;3.92;2.08;;;5.30;99.90;;;;;;4977359;28;20166;-88
2021/11/27 01:56:27;;;;;;;3.05;2.38;;;5.30;99.90;;;;;;4977036;28;20212;-88
2021/11/27 01:58:53;;;;;;;6.68;3.13;;;5.20;99.90;;;;;;4976746;28;20621;-88
2021/11/27 02:01:22;;;;;;;4.43;2.63;;;5.20;99.90;;;;;;4959405;28;20178;-87
2021/11/27 02:03:48;;;;;;;3.67;2.45;;;5.30;99.90;;;;;;4976901;28;20177;-88
2021/11/27 02:06:17;;;;;;;2.80;1.70;;;5.30;99.90;;;;;;4975992;28;20200;-86
2021/11/27 02:08:45;;;;;;;5.45;1.77;;;5.00;99.90;;;;;;4975530;28;20158;-88
2021/11/27 02:11:14;;;;;;;7.03;2.38;;;5.00;99.90;;;;;;4975403;28;20265;-88
2021/11/27 02:13:40;;;;;;;2.88;2.63;;;5.20;99.90;;;;;;4959299;28;20198;-87
2021/11/27 02:16:05;;;;;;;4.60;2.45;;;5.20;99.90;;;;;;4975194;28;20329;-86
2021/11/27 02:18:31;;;;;;;4.03;3.10;;;5.10;99.90;;;;;;4975132;28;20193;-77
2021/11/27 02:21:19;;;;;;;4.43;2.92;;;5.00;99.90;;;;;;4975081;28;20628;-78
2021/11/27 02:23:46;;;;;;;3.45;3.13;;;4.90;99.90;;;;;;4975101;28;20633;-78
2021/11/27 02:26:14;;;;;;;3.17;2.92;;;4.90;99.90;;;;;;4974725;28;20193;-80
2021/11/27 02:28:45;;;;;;;11.18;3.58;;;4.90;99.90;;;;;;4975017;28;20170;-78
2021/11/27 02:31:11;;;;;;;5.80;3.38;;;4.90;99.90;;;;;;4974817;28;20206;-78
2021/11/27 02:33:37;;;;;;;4.90;3.13;;;5.00;99.90;;;;;;4974618;28;20292;-77
2021/11/27 02:36:03;;;;;;;9.43;3.72;;;5.10;99.90;;;;;;4974757;28;20197;-84
2021/11/27 02:38:29;;;;;;;4.13;3.58;;;5.00;99.90;;;;;;4974416;28;20185;-87
2021/11/27 02:40:55;;;;;;;7.05;3.80;;;5.00;99.90;;;;;;4975025;28;20628;-78
2021/11/27 02:43:20;;;;;;;7.75;4.00;;;5.10;99.90;;;;;;4973505;28;20158;-82
2021/11/27 02:45:46;;;;;;;5.22;3.97;;;5.10;99.90;;;;;;4974555;28;20202;-78
2021/11/27 02:48:12;;;;;;;4.90;3.75;;;4.90;99.90;;;;;;4974777;28;20170;-87
2021/11/27 02:50:38;;;;;;;8.20;3.88;;;4.80;99.90;;;;;;4979103;28;20202;-78
2021/11/27 02:53:06;;;;;;;6.25;3.85;;;4.70;99.90;;;;;;4982771;28;20170;-77
2021/11/27 02:55:32;;;;;;;10.23;4.20;;;4.70;99.90;;;;;;4979438;28;20289;-77
2021/11/27 02:57:57;;;;;;;5.30;3.85;;;4.60;99.90;;;;;;4978858;28;20197;-76
2021/11/27 03:00:24;;;;;;;8.43;4.38;;;4.60;99.90;;;;;;4978022;28;20170;-76
2021/11/27 03:02:52;;;;;;;7.85;4.85;;;4.70;99.90;;;;;;4977915;28;20177;-77
2021/11/27 03:05:19;;;;;;;11.93;3.78;;;4.60;99.90;;;;;;4977659;28;20664;-77
2021/11/27 03:07:45;;;;;;;6.43;3.35;;;4.70;99.90;;;;;;4960298;28;20169;-87
2021/11/27 03:10:13;;;;;;;10.43;4.13;;;4.70;99.90;;;;;;4978342;28;20205;-76
2021/11/27 03:12:40;;;;;;;12.68;4.75;;;4.60;99.90;;;;;;4978939;28;20166;-78
2021/11/27 03:15:12;;;;;;;12.75;3.63;;;4.60;99.90;;;;;;4980816;28;20244;-88
2021/11/27 03:17:38;;;;;;;10.63;3.75;;;4.60;99.90;;;;;;4979672;28;20177;-88
2021/11/27 03:20:06;;;;;;;16.17;4.45;;;4.50;99.90;;;;;;4979844;28;20205;-86
2021/11/27 03:22:33;;;;;;;11.50;4.15;;;4.50;99.90;;;;;;4978541;28;20204;-88
2021/11/27 03:24:58;;;;;;;9.90;4.32;;;4.50;99.90;;;;;;4979989;28;20177;-79
2021/11/27 03:27:24;;;;;;;9.65;3.75;;;4.60;99.90;;;;;;4962846;28;20174;-78
2021/11/27 03:29:50;;;;;;;8.80;4.43;;;4.60;99.90;;;;;;4977947;28;20166;-77
2021/11/27 03:32:17;;;;;;;13.95;4.00;;;4.40;99.90;;;;;;4979098;28;20659;-85
2021/11/27 03:34:43;;;;;;;15.05;3.78;;;4.50;99.90;;;;;;4976146;28;20172;-79
2021/11/27 03:37:10;;;;;;;11.85;3.35;;;4.50;99.90;;;;;;4974861;28;20201;-78
2021/11/27 03:39:37;;;;;;;13.35;3.60;;;4.30;99.90;;;;;;4974130;28;20170;-77
2021/11/27 03:42:06;;;;;;;11.43;4.30;;;4.20;99.90;;;;;;4973887;28;20166;-81
2021/11/27 03:44:33;;;;;;;7.10;3.88;;;4.20;99.90;;;;;;4956711;28;20237;-84
2021/11/27 03:46:59;;;;;;;9.13;4.15;;;4.30;99.90;;;;;;4974004;28;20189;-82
2021/11/27 03:49:30;;;;;;;10.70;3.78;;;4.40;99.90;;;;;;4974530;28;20176;-81
2021/11/27 03:51:56;;;;;;;13.45;4.15;;;4.50;99.90;;;;;;4974254;28;20205;-88
2021/11/27 03:54:22;;;;;;;17.65;4.43;;;4.60;99.90;;;;;;4975091;28;20193;-87
2021/11/27 03:56:48;;;;;;;6.28;4.70;;;4.60;99.90;;;;;;4974717;28;20185;-87
2021/11/27 03:59:14;;;;;;;15.88;5.07;;;4.80;99.90;;;;;;4975591;28;20162;-88
2021/11/27 04:01:41;;;;;;;18.40;5.63;;;4.70;99.90;;;;;;4979728;28;20170;-86
2021/11/27 04:04:07;;;;;;;10.95;4.22;;;4.40;99.90;;;;;;4982156;28;20170;-88
2021/11/27 04:06:34;;;;;;;14.65;4.22;;;4.30;99.90;;;;;;4980847;28;20228;-86
2021/11/27 04:09:03;;;;;;;14.55;4.70;;;4.30;99.90;;;;;;4980291;28;20177;-86
2021/11/27 04:11:29;;;;;;;5.40;3.92;;;4.40;99.90;;;;;;4963216;28;20216;-86
2021/11/27 04:13:54;;;;;;;7.30;3.92;;;4.50;99.90;;;;;;4964055;28;20174;-88
2021/11/27 04:16:21;;;;;;;10.77;3.72;;;4.50;99.90;;;;;;4980189;28;20190;-86
2021/11/27 04:18:46;;;;;;;12.98;4.68;;;4.40;99.90;;;;;;4979884;28;20229;-88
2021/11/27 04:21:14;;;;;;;10.25;4.60;;;4.30;99.90;;;;;;4979813;28;20169;-89
2021/11/27 04:23:41;;;;;;;18.65;5.85;;;4.40;99.90;;;;;;4962487;28;20244;-88
2021/11/27 04:26:07;;;;;;;10.35;3.75;;;4.40;99.90;;;;;;4979269;28;20186;-78
2021/11/27 04:28:33;;;;;;;7.57;3.80;;;4.50;99.90;;;;;;4979762;28;20162;-83
2021/11/27 04:30:59;;;;;;;13.43;4.78;;;4.50;99.90;;;;;;4962765;28;20217;-87
2021/11/27 04:33:24;;;;;;;8.40;3.47;;;4.60;99.90;;;;;;4980182;28;20245;-87
2021/11/27 04:35:51;;;;;;;13.57;4.05;;;4.40;99.90;;;;;;4979705;28;20208;-86
2021/11/27 04:38:17;;;;;;;15.85;3.83;;;4.50;99.90;;;;;;4979433;28;20218;-86
2021/11/27 04:40:43;;;;;;;10.70;4.35;;;4.70;99.90;;;;;;4978424;28;20170;-87
2021/11/27 04:43:09;;;;;;;12.85;4.85;;;4.70;99.90;;;;;;4978741;28;20258;-78
2021/11/27 04:45:35;;;;;;;8.80;3.80;;;4.40;99.90;;;;;;4977758;28;20189;-82
2021/11/27 04:48:01;;;;;;;10.98;4.63;;;4.40;99.90;;;;;;4977460;28;20174;-85
2021/11/27 04:50:29;;;;;;;6.03;4.00;;;4.40;99.90;;;;;;4977171;28;20197;-83
2021/11/27 04:52:55;;;;;;;8.77;4.30;;;4.40;99.90;;;;;;4977953;28;20174;-85
2021/11/27 04:55:20;;;;;;;18.05;4.15;;;4.40;99.90;;;;;;4977083;28;20190;-81
2021/11/27 04:57:47;;;;;;;13.82;4.22;;;4.30;99.90;;;;;;4978465;28;20196;-88
2021/11/27 05:00:23;;;;;;;18.05;3.92;;;4.30;99.90;;;;;;4976704;28;20173;-82
2021/11/27 05:02:49;;;;;;;15.85;3.95;;;4.40;99.90;;;;;;4960488;28;20289;-78
2021/11/27 05:05:16;;;;;;;10.00;3.85;;;4.60;99.90;;;;;;4977215;28;20158;-85
2021/11/27 05:07:42;;;;;;;11.80;3.38;;;4.50;99.90;;;;;;4976685;28;20594;-86
2021/11/27 05:10:09;;;;;;;13.70;4.07;;;4.40;99.90;;;;;;4976281;28;20194;-87
2021/11/27 05:12:34;;;;;;;12.25;4.63;;;4.30;99.90;;;;;;4976120;28;20663;-87
2021/11/27 05:15:00;;;;;;;7.43;3.70;;;4.30;99.90;;;;;;4976516;28;20167;-88
2021/11/27 05:17:26;;;;;;;6.93;3.15;;;4.00;99.90;;;;;;4977988;28;20173;-86
2021/11/27 05:19:51;;;;;;;9.13;3.33;;;4.10;99.90;;;;;;4980334;28;20249;-77
2021/11/27 05:22:17;;;;;;;11.32;2.70;;;4.10;99.90;;;;;;4983959;28;20193;-77
2021/11/27 05:24:46;;;;;;;7.03;3.75;;;4.20;99.90;;;;;;4976640;28;20190;-86
2021/11/27 05:27:13;;;;;;;10.90;3.95;;;4.30;99.90;;;;;;4959324;28;20197;-77
2021/11/27 05:29:40;;;;;;;24.55;3.70;;;4.30;99.90;;;;;;4976477;28;20176;-78
2021/11/27 05:32:08;;;;;;;6.68;3.15;;;4.40;99.90;;;;;;4976491;28;20186;-86
2021/11/27 05:34:34;;;;;;;12.52;3.65;;;4.40;99.90;;;;;;4959708;28;20212;-80
2021/11/27 05:37:06;;;;;;;6.60;2.80;;;4.30;99.90;;;;;;4976464;28;20193;-77
2021/11/27 05:39:32;;;;;;;14.13;4.00;;;4.30;99.90;;;;;;4976466;28;20176;-76
2021/11/27 05:41:58;;;;;;;10.52;3.33;;;4.20;99.90;;;;;;4976721;28;20170;-81
2021/11/27 05:44:24;;;;;;;8.13;4.10;;;4.20;99.90;;;;;;4976434;28;20170;-76
2021/11/27 05:46:50;;;;;;;7.53;3.50;;;4.30;99.90;;;;;;4976002;28;20687;-80
2021/11/27 05:49:16;;;;;;;17.67;4.10;;;4.30;99.90;;;;;;4976549;28;20173;-87
2021/11/27 05:51:42;;;;;;;11.23;3.92;;;4.30;99.90;;;;;;4975581;28;20664;-77
2021/11/27 05:54:08;;;;;;;20.05;4.57;;;4.20;99.90;;;;;;4958635;28;20169;-76
2021/11/27 05:56:33;;;;;;;7.63;4.10;;;4.30;99.90;;;;;;4976341;28;20207;-77
2021/11/27 05:58:59;;;;;;;6.63;3.72;;;4.30;99.90;;;;;;4975833;28;20197;-83
2021/11/27 06:01:25;;;;;;;8.73;3.40;;;4.30;99.90;;;;;;4975870;28;20170;-79
2021/11/27 06:03:51;;;;;;;14.25;3.47;;;4.40;99.90;;;;;;4975796;28;20170;-78
2021/11/27 06:06:17;;;;;;;5.82;3.30;;;4.40;99.90;;;;;;4976175;28;20194;-87
2021/11/27 06:08:42;;;;;;;12.48;3.45;;;4.30;99.90;;;;;;4975901;28;20202;-85
2021/11/27 06:11:08;;;;;;;5.95;3.47;;;4.20;99.90;;;;;;4975955;28;20201;-86
2021/11/27 06:13:34;;;;;;;7.05;2.85;;;4.20;99.90;;;;;;4975682;28;20620;-84
2021/11/27 06:16:06;;;;;;;13.25;3.45;;;4.40;99.90;;;;;;4975534;28;20213;-77
2021/11/27 06:18:33;;;;;;;10.15;3.72;;;4.50;99.90;;;;;;4975718;28;20608;-82
2021/11/27 06:21:01;;;;;;;12.15;3.75;;;4.60;99.90;;;;;;4975270;28;20174;-86
2021/11/27 06:23:27;;;;;;;7.03;4.18;;;4.60;99.90;;;;;;4975583;28;20173;-81
2021/11/27 06:25:54;;;;;;;10.40;3.80;;;4.70;99.90;;;;;;4975271;28;20193;-85
2021/11/27 06:28:20;;;;;;;9.15;3.22;;;4.70;99.90;;;;;;4975904;28;20509;-86
2021/11/27 06:30:46;;;;;;;7.70;3.92;;;4.60;99.90;;;;;;4975341;28;20344;-82
2021/11/27 06:33:11;;;;;;;14.75;2.60;;;4.60;99.90;;;;;;4975384;28;20178;-87
2021/11/27 06:35:37;;;;;;;7.90;3.28;;;4.80;99.90;;;;;;4975589;28;20545;-77
2021/11/27 06:38:03;;;;;;;14.93;4.25;;;4.80;99.90;;;;;;4974936;28;20519;-77
2021/11/27 06:40:28;;;;;;;13.32;2.83;;;4.70;99.90;;;;;;4974623;28;20565;-79
2021/11/27 06:42:55;;;;;;;9.90;2.70;;;4.50;99.90;;;;;;4974357;28;20173;-75
2021/11/27 06:45:23;;;;;;;6.30;2.80;;;4.20;99.90;;;;;;4956988;28;20189;-82
2021/11/27 06:47:48;;;;;;;11.00;3.00;;;4.20;99.90;;;;;;4957025;28;20165;-78
2021/11/27 06:50:14;;;;;;;8.40;2.63;;;4.00;99.90;;;;;;4956866;28;20197;-77
2021/11/27 06:52:41;;;;;;;12.43;2.67;;;3.90;99.90;;;;;;4974571;28;20170;-78
2021/11/27 06:55:07;;;;;;;10.00;3.92;;;4.10;99.90;;;;;;4974513;28;20181;-82
2021/11/27 06:57:33;;;;;;;15.23;3.65;;;4.30;99.90;;;;;;4974349;28;20221;-85
2021/11/27 06:59:58;;;;;;;8.10;2.42;;;4.50;99.90;;;;;;4974680;28;20632;-86
2021/11/27 07:02:24;;;;;;;17.52;4.38;;;4.60;99.90;;;;;;4974787;28;20269;-82
2021/11/27 07:04:50;;;;;;;8.18;3.03;;;4.70;99.90;;;;;;4974071;28;20182;-80
2021/11/27 07:07:15;;;;;;;13.65;2.80;;;4.70;99.90;;;;;;4973486;28;20545;-78
2021/11/27 07:09:41;;;;;;;12.73;3.55;;;4.60;99.90;;;;;;4973685;28;20265;-79
2021/11/27 07:12:07;;;;;;;14.20;3.80;;;4.70;99.90;;;;;;4973458;28;20205;-82
2021/11/27 07:14:33;;;;;;;15.25;4.32;;;4.60;99.90;;;;;;4974163;28;20280;-78
2021/11/27 07:16:58;;;;;;;19.08;4.00;;;4.70;99.90;;;;;;4974099;28;20676;-90
2021/11/27 07:19:24;;;;;;;15.60;5.00;;;4.70;99.90;;;;;;4974618;28;20173;-87
2021/11/27 07:21:49;;;;;;;8.68;2.80;;;4.70;99.90;;;;;;4976090;28;20515;-87
2021/11/27 07:24:15;;;;;;;9.68;3.05;;;4.50;99.90;;;;;;4958538;28;20217;-76
2021/11/27 07:26:41;;;;;;;10.95;3.45;;;4.40;99.90;;;;;;4974281;28;20182;-84
2021/11/27 07:29:07;;;;;;;6.20;2.92;;;4.40;99.90;;;;;;4957892;28;20182;-86
2021/11/27 07:31:32;;;;;;;6.00;3.25;;;4.60;99.90;;;;;;4977026;28;20202;-82
2021/11/27 07:33:59;;;;;;;7.38;3.55;;;4.50;99.90;;;;;;4958904;28;20187;-79
2021/11/27 07:36:24;;;;;;;5.03;3.17;;;4.50;99.90;;;;;;4974735;28;20178;-87
2021/11/27 07:38:50;;;;;;;5.30;3.67;;;4.50;99.90;;;;;;4976713;28;20170;-80
2021/11/27 07:41:15;;;;;;;10.68;4.32;;;4.60;99.90;;;;;;4986287;28;20166;-85
2021/11/27 07:43:41;;;;;;;8.38;3.50;;;4.70;99.90;;;;;;4990646;28;20165;-80
2021/11/27 07:46:07;;;;;;;4.35;2.92;;;4.80;99.90;;;;;;4991211;28;20194;-81
2021/11/27 07:48:34;;;;;;;6.07;3.05;;;4.80;99.90;;;;;;4960341;28;20742;-76
2021/11/27 07:51:01;;;;;;;14.52;4.20;;;4.90;99.90;;;;;;4965453;28;20217;-83
2021/11/27 07:53:27;;;;;;;17.48;3.60;;;5.10;99.90;;;;;;4963002;28;20663;-82
2021/11/27 07:55:53;;;;;;;5.70;3.08;;;5.10;99.90;;;;;;4983971;28;20194;-77
2021/11/27 07:58:19;;;;;;;21.05;5.78;;;4.90;99.90;;;;;;4979582;28;20229;-87
2021/11/27 08:00:44;;;;;;;5.28;3.95;;;4.90;99.90;;;;;;4984679;28;20181;-84
2021/11/27 08:03:10;;;;;;;13.30;3.75;;;4.90;99.90;;;;;;4984595;28;20719;-80
2021/11/27 08:05:36;;;;;;;11.93;4.40;;;4.90;99.90;;;;;;4980191;28;20189;-80
2021/11/27 08:08:01;;;;;;;7.35;3.75;;;4.80;99.90;;;;;;4973364;28;20549;-82
2021/11/27 08:10:27;;;;;;;12.40;4.43;;;4.80;99.90;;;;;;4971403;28;20220;-79
2021/11/27 08:12:53;;;;;;;10.20;3.88;;;4.90;99.90;;;;;;4973717;28;20170;-86
2021/11/27 08:15:18;;;;;;;8.88;4.55;;;5.10;99.90;;;;;;4973719;28;20236;-86
2021/11/27 08:17:44;;;;;;;7.63;4.38;;;5.20;99.90;;;;;;4973811;28;20221;-86
2021/11/27 08:20:10;;;;;;;11.55;4.90;;;5.30;99.90;;;;;;4971517;28;20178;-83
2021/11/27 08:22:37;;;;;;;14.73;4.50;;;5.20;99.90;;;;;;4971784;28;20194;-78
2021/11/27 08:25:04;;;;;;;12.68;4.50;;;5.10;99.90;;;;;;4967569;28;20205;-86
2021/11/27 08:27:30;;;;;;;10.60;4.20;;;5.10;99.90;;;;;;4953854;29;20174;-77
2021/11/27 08:29:57;;;;;;;7.10;3.85;;;5.10;99.90;;;;;;4953106;29;20249;-82
2021/11/27 08:32:23;;;;;;;7.45;3.58;;;5.30;99.90;;;;;;4953834;29;20258;-78
2021/11/27 08:34:49;;;;;;;8.10;3.85;;;5.40;99.90;;;;;;4971159;28;20247;-77
2021/11/27 08:37:15;;;;;;;13.07;3.70;;;5.40;99.90;;;;;;4972738;28;20229;-79
2021/11/27 08:39:40;;;;;;;7.13;3.80;;;5.70;99.90;;;;;;4956227;28;20174;-79
2021/11/27 08:42:06;;;;;;;8.70;4.15;;;5.50;99.90;;;;;;4972964;28;20162;-89
2021/11/27 08:44:32;;;;;;;13.05;4.07;;;5.60;99.90;;;;;;4973362;28;20185;-87
2021/11/27 08:46:58;;;;;;;18.45;5.38;;;5.50;99.90;;;;;;4975556;28;20553;-79
2021/11/27 08:49:24;;;;;;;8.93;4.30;;;5.50;99.90;;;;;;4975251;28;20170;-75
2021/11/27 08:51:49;;;;;;;9.85;3.72;;;5.50;99.90;;;;;;4975484;28;20217;-82
2021/11/27 08:54:16;;;;;;;6.43;3.70;;;5.50;99.90;;;;;;4975989;28;20225;-77
2021/11/27 08:56:42;;;;;;;6.78;4.60;;;5.60;99.90;;;;;;4975920;28;20660;-77
2021/11/27 08:59:08;;;;;;;9.05;4.07;;;5.80;99.90;;;;;;4976260;28;20200;-78
2021/11/27 09:01:34;;;;;;;9.55;4.20;;;5.70;99.90;;;;;;4975961;28;20170;-75
2021/11/27 09:04:00;;;;;;;12.75;4.35;;;5.60;99.90;;;;;;4977633;28;20221;-86
2021/11/27 09:06:26;;;;;;;14.48;4.70;;;5.80;99.90;;;;;;4977758;28;20226;-89
2021/11/27 09:08:52;;;;;;;9.45;4.07;;;5.70;99.90;;;;;;4978181;28;20170;-85
2021/11/27 09:11:21;;;;;;;13.80;4.05;;;5.80;99.90;;;;;;4977472;28;20309;-85
2021/11/27 09:13:48;;;;;;;14.75;4.43;;;5.80;99.90;;;;;;4977122;28;20170;-86
2021/11/27 09:16:13;;;;;;;9.35;4.72;;;5.80;99.90;;;;;;4977436;28;20196;-86
2021/11/27 09:18:39;;;;;;;16.88;3.80;;;5.90;99.90;;;;;;4976889;28;20166;-79
2021/11/27 09:21:05;;;;;;;8.43;4.57;;;5.60;99.90;;;;;;4976720;28;20174;-82
2021/11/27 09:23:31;;;;;;;13.98;4.13;;;5.60;99.90;;;;;;4973316;28;20577;-79
2021/11/27 09:25:57;;;;;;;17.40;4.82;;;5.80;99.90;;;;;;4957299;28;20198;-85
2021/11/27 09:28:23;;;;;;;10.13;3.78;;;5.90;99.90;;;;;;4958315;28;20170;-85
2021/11/27 09:30:50;;;;;;;11.60;3.72;;;6.10;99.90;;;;;;4957514;29;20253;-87
2021/11/27 09:33:16;;;;;;;10.40;4.40;;;5.80;99.90;;;;;;4956541;29;20205;-82
2021/11/27 09:35:51;;;;;;;6.72;3.75;;;5.80;99.90;;;;;;4956881;29;20194;-82
2021/11/27 09:38:17;;;;;;;15.23;4.78;;;5.90;99.90;;;;;;4940883;29;20526;-80
2021/11/27 09:40:43;;;;;;;8.02;4.28;;;6.10;99.90;;;;;;4940969;29;20185;-81
2021/11/27 09:43:09;;;;;;;9.27;4.07;;;6.10;99.90;;;;;;4957180;29;20528;-81
2021/11/27 09:45:35;;;;;;;12.80;4.22;;;6.10;99.90;;;;;;4959871;29;20191;-79
2021/11/27 09:48:02;;;;;;;8.70;4.18;;;6.30;99.90;;;;;;4938706;29;20186;-80
2021/11/27 09:50:28;;;;;;;12.00;3.55;;;6.60;99.90;;;;;;4938125;29;20244;-81
2021/11/27 09:52:54;;;;;;;5.43;3.88;;;6.60;99.90;;;;;;4938655;29;20711;-76
2021/11/27 09:55:20;;;;;;;5.93;3.85;;;6.70;99.90;;;;;;4955762;29;20289;-76
2021/11/27 09:57:48;;;;;;;10.15;4.45;;;6.70;99.90;;;;;;4955841;28;20171;-77
2021/11/27 10:00:18;;;;;;;15.80;4.80;;;6.70;99.90;;;;;;4940483;29;20529;-77
2021/11/27 10:02:53;;;;;;;8.13;4.65;;;6.70;99.90;;;;;;4939950;29;20629;-78
2021/11/27 10:05:20;;;;;;;9.48;4.22;;;6.50;99.90;;;;;;4957522;29;20177;-78
2021/11/27 10:07:47;;;;;;;6.65;4.00;;;6.50;99.90;;;;;;4956541;29;20186;-77
2021/11/27 10:10:13;;;;;;;11.70;4.93;;;6.70;99.90;;;;;;4957733;29;20202;-78
2021/11/27 10:12:40;;;;;;;13.45;5.28;;;6.70;99.90;;;;;;4965041;29;20193;-78
2021/11/27 10:15:07;;;;;;;7.90;4.28;;;6.60;99.90;;;;;;4962383;29;20159;-78
2021/11/27 10:17:33;;;;;;;8.38;4.93;;;6.30;99.90;;;;;;4955229;29;20178;-78
2021/11/27 10:20:01;;;;;;;11.70;5.18;;;6.20;99.90;;;;;;4955538;29;20629;-77
2021/11/27 10:22:43;;;;;;;14.77;5.68;;;6.10;99.90;;;;;;4955127;29;20218;-77
2021/11/27 10:25:32;;;;;;;12.75;5.00;;;5.70;99.90;;;;;;4956407;29;20716;-78
2021/11/27 10:28:05;;;;;;;7.43;4.15;;;5.60;99.90;;;;;;4955592;29;20503;-78
2021/11/27 10:30:42;;;;;;;8.15;5.00;;;5.50;99.90;;;;;;4938347;29;20755;-78
2021/11/27 10:33:08;;;;;;;6.75;4.50;;;5.60;99.90;;;;;;4955678;29;20174;-78
2021/11/27 10:35:34;;;;;;;8.75;4.68;;;5.60;99.90;;;;;;4955099;29;20229;-79
2021/11/27 10:38:04;;;;;;;8.82;5.07;;;5.60;99.90;;;;;;4953956;29;20233;-79
2021/11/27 10:40:30;;;;;;;11.35;4.57;;;5.80;99.90;;;;;;4955315;29;20178;-80
2021/11/27 10:42:58;;;;;;;7.80;4.57;;;5.70;99.90;;;;;;4955992;29;20179;-80
2021/11/27 10:45:30;;;;;;;12.43;4.55;;;5.80;99.90;;;;;;4957669;29;20242;-77
2021/11/27 10:48:16;;;;;;;12.27;3.83;;;5.80;99.90;;;;;;4955278;29;20182;-79
2021/11/27 10:50:47;;;;;;;4.78;3.75;;;5.90;99.90;;;;;;4954312;29;20305;-79
2021/11/27 10:53:22;;;;;;;6.75;4.32;;;6.00;99.90;;;;;;4954649;29;20171;-78
2021/11/27 10:55:48;;;;;;;7.32;4.18;;;5.90;99.90;;;;;;4954528;29;20262;-79
2021/11/27 10:58:15;;;;;;;7.00;3.70;;;5.60;99.90;;;;;;4954160;29;20177;-80
2021/11/27 11:00:50;;;;;;;6.20;4.20;;;5.60;99.90;;;;;;4952790;29;20262;-80
2021/11/27 11:03:30;;;;;;;7.88;4.97;;;5.50;99.90;;;;;;4954771;29;20170;-78
2021/11/27 11:05:58;;;;;;;10.15;5.10;;;5.70;99.90;;;;;;4937197;29;20281;-79
2021/11/27 11:08:36;;;;;;;21.23;5.57;;;5.70;99.90;;;;;;4954012;28;20175;-80
2021/11/27 11:11:24;;;;;;;22.88;4.60;;;5.70;99.90;;;;;;4954195;29;20210;-80
2021/11/27 11:14:00;;;;;;;9.15;5.25;;;6.00;99.90;;;;;;4937309;29;20178;-81
2021/11/27 11:16:31;;;;;;;6.20;4.03;;;6.00;99.90;;;;;;4937185;29;20566;-83
2021/11/27 11:19:15;;;;;;;8.07;5.18;;;5.70;99.90;;;;;;4954115;29;20178;-82
2021/11/27 11:22:06;;;;;;;13.55;4.28;;;5.40;99.90;;;;;;4953829;29;20185;-80
2021/11/27 11:24:33;;;;;;;7.22;4.03;;;5.30;99.90;;;;;;4937104;29;20242;-82
2021/11/27 11:27:00;;;;;;;8.05;4.68;;;5.50;99.90;;;;;;4953159;29;20190;-83
2021/11/27 11:29:50;;;;;;;7.75;4.30;;;5.70;99.90;;;;;;4955046;29;20232;-88
2021/11/27 11:32:21;;;;;;;7.40;5.03;;;6.10;99.90;;;;;;4954628;29;20202;-77
2021/11/27 11:34:52;;;;;;;7.03;3.97;;;6.10;99.90;;;;;;4954408;29;20170;-80
2021/11/27 11:37:18;;;;;;;7.22;4.32;;;6.30;99.90;;;;;;4954907;29;20191;-83
2021/11/27 11:39:45;;;;;;;11.48;3.47;;;6.70;99.90;;;;;;4938500;29;20236;-84
2021/11/27 11:42:11;;;;;;;13.80;4.15;;;6.90;99.90;;;;;;4955323;29;20166;-83
2021/11/27 11:44:41;;;;;;;10.05;3.42;;;7.20;99.90;;;;;;4955320;29;20181;-84
2021/11/27 11:47:08;;;;;;;6.95;3.63;;;7.30;99.90;;;;;;4954467;29;20262;-82
2021/11/27 11:49:35;;;;;;;9.75;4.57;;;7.50;99.90;;;;;;4954832;29;20181;-85
2021/11/27 11:52:09;;;;;;;8.15;3.75;;;7.50;99.90;;;;;;4954813;29;20206;-86
2021/11/27 11:54:36;;;;;;;8.85;3.85;;;7.70;99.90;;;;;;4954782;29;20174;-81
2021/11/27 11:57:09;;;;;;;4.35;3.65;;;7.80;99.90;;;;;;4953961;29;20206;-80
2021/11/27 11:59:42;;;;;;;4.47;3.08;;;8.00;99.90;;;;;;4953724;29;20625;-80
2021/11/27 12:02:28;;;;;;;5.30;3.33;;;8.20;99.90;;;;;;4936367;29;20178;-78
2021/11/27 12:05:06;;;;;;;11.80;3.33;;;7.70;99.90;;;;;;4953760;29;20178;-86
2021/11/27 12:07:44;;;;;;;4.70;3.00;;;7.90;99.90;;;;;;4953685;29;20182;-78
2021/11/27 12:10:44;;;;;;;8.93;3.95;;;8.10;99.90;;;;;;4953478;29;20193;-78
2021/11/27 12:13:10;;;;;;;7.80;3.45;;;8.10;99.90;;;;;;4951804;29;20224;-79
2021/11/27 12:15:44;;;;;;;11.93;2.88;;;8.20;99.90;;;;;;4936081;29;20217;-78
2021/11/27 12:18:15;;;;;;;9.10;3.72;;;8.30;99.90;;;;;;4953790;29;20196;-78
2021/11/27 12:20:54;;;;;;;9.43;3.10;;;8.30;99.90;;;;;;4955125;28;20334;-78
2021/11/27 12:23:29;;;;;;;9.30;3.35;;;7.40;99.90;;;;;;4956807;29;20600;-79
2021/11/27 12:26:10;;;;;;;6.25;3.00;;;6.90;99.90;;;;;;4956885;29;20504;-78
2021/11/27 12:28:36;;;;;;;5.22;2.78;;;6.80;99.90;;;;;;4957132;29;20532;-80
2021/11/27 12:31:05;;;;;;;11.18;2.92;;;7.00;99.90;;;;;;4957040;29;20680;-78
2021/11/27 12:33:50;;;;;;;4.35;2.72;;;7.40;99.90;;;;;;4961815;28;20197;-78
2021/11/27 12:36:25;;;;;;;11.10;3.17;;;7.80;99.90;;;;;;4974740;28;20236;-77
2021/11/27 12:39:03;;;;;;;5.25;2.72;;;8.10;99.90;;;;;;4958404;28;20208;-77
2021/11/27 12:41:35;;;;;;;4.07;3.67;;;8.20;99.90;;;;;;4958522;28;20173;-77
2021/11/27 12:44:15;;;;;;;17.45;4.43;;;8.50;99.90;;;;;;4959556;28;20872;-77
2021/11/27 12:46:45;;;;;;;5.47;3.30;;;8.50;99.90;;;;;;4939295;29;20236;-76
2021/11/27 12:49:34;;;;;;;8.10;2.85;;;8.40;99.90;;;;;;4956522;29;20238;-78
2021/11/27 12:52:21;;;;;;;8.75;3.55;;;8.60;99.90;;;;;;4949787;29;20266;-77
2021/11/27 12:54:48;;;;;;;5.40;3.25;;;8.90;99.90;;;;;;4956501;29;20173;-78
2021/11/27 12:57:14;;;;;;;7.13;3.65;;;8.90;99.90;;;;;;4956542;29;20560;-77